sensor_id;sensor_type;location;lat;lon;timestamp;P1;durP1;ratioP1;P2;durP2;ratioP2
39276;SDS011;63149;48.086;-1.606;2022-09-01T05:02:25;27.15;;;15.48;;
39276;SDS011;63149;48.086;-1.606;2022-09-01T05:04:53;21.73;;;16.02;;
39276;SDS011;63149;48.086;-1.606;2022-09-01T05:07:21;28.17;;;15.65;;
39276;SDS011;63149;48.086;-1.606;2022-09-01T05:09:48;26.35;;;17.52;;
39276;SDS011;63149;48.086;-1.606;2022-09-01T05:12:14;23.00;;;16.75;;
39276;SDS011;63149;48.086;-1.606;2022-09-01T05:14:46;23.75;;;15.88;;
39276;SDS011;63149;48.086;-1.606;2022-09-01T05:17:13;26.60;;;15.00;;
39276;SDS011;63149;48.086;-1.606;2022-09-01T05:19:43;23.05;;;15.48;;
39276;SDS011;63149;48.086;-1.606;2022-09-01T05:22:12;22.98;;;14.57;;
39276;SDS011;63149;48.086;-1.606;2022-09-01T05:24:40;23.95;;;16.02;;
39276;SDS011;63149;48.086;-1.606;2022-09-01T05:27:07;27.05;;;14.90;;
39276;SDS011;63149;48.086;-1.606;2022-09-01T05:29:34;22.90;;;15.27;;
39276;SDS011;63149;48.086;-1.606;2022-09-01T05:32:05;28.67;;;15.60;;
39276;SDS011;63149;48.086;-1.606;2022-09-01T05:34:34;27.13;;;14.43;;
39276;SDS011;63149;48.086;-1.606;2022-09-01T05:37:04;23.17;;;13.32;;
39276;SDS011;63149;48.086;-1.606;2022-09-01T05:39:33;26.73;;;14.18;;
39276;SDS011;63149;48.086;-1.606;2022-09-01T05:42:02;23.98;;;13.32;;
39276;SDS011;63149;48.086;-1.606;2022-09-01T05:44:32;22.38;;;14.75;;
39276;SDS011;63149;48.086;-1.606;2022-09-01T05:46:59;18.10;;;13.10;;
39276;SDS011;63149;48.086;-1.606;2022-09-01T05:49:27;23.77;;;13.65;;
39276;SDS011;63149;48.086;-1.606;2022-09-01T05:51:57;17.95;;;13.13;;
39276;SDS011;63149;48.086;-1.606;2022-09-01T05:54:25;21.48;;;14.10;;
39276;SDS011;63149;48.086;-1.606;2022-09-01T05:56:53;25.48;;;15.07;;
39276;SDS011;63149;48.086;-1.606;2022-09-01T05:59:21;25.40;;;16.35;;
39276;SDS011;63149;48.086;-1.606;2022-09-01T06:01:49;19.42;;;14.85;;
39276;SDS011;63149;48.086;-1.606;2022-09-01T06:04:17;19.90;;;14.65;;
39276;SDS011;63149;48.086;-1.606;2022-09-01T06:06:44;26.85;;;14.55;;
39276;SDS011;63149;48.086;-1.606;2022-09-01T06:09:13;18.33;;;13.27;;
39276;SDS011;63149;48.086;-1.606;2022-09-01T06:11:44;21.33;;;13.63;;
39276;SDS011;63149;48.086;-1.606;2022-09-01T06:14:12;25.40;;;13.93;;
39276;SDS011;63149;48.086;-1.606;2022-09-01T06:16:40;21.13;;;13.98;;
39276;SDS011;63149;48.086;-1.606;2022-09-01T06:19:07;22.00;;;12.68;;
39276;SDS011;63149;48.086;-1.606;2022-09-01T06:21:35;22.88;;;12.57;;
39276;SDS011;63149;48.086;-1.606;2022-09-01T06:24:04;23.10;;;13.32;;
39276;SDS011;63149;48.086;-1.606;2022-09-01T06:26:32;23.08;;;13.07;;
39276;SDS011;63149;48.086;-1.606;2022-09-01T06:29:03;22.45;;;13.27;;
39276;SDS011;63149;48.086;-1.606;2022-09-01T06:31:34;28.20;;;13.23;;
39276;SDS011;63149;48.086;-1.606;2022-09-01T06:34:04;27.48;;;12.52;;
39276;SDS011;63149;48.086;-1.606;2022-09-01T06:36:34;28.48;;;13.15;;
39276;SDS011;63149;48.086;-1.606;2022-09-01T06:39:04;25.58;;;12.95;;
39276;SDS011;63149;48.086;-1.606;2022-09-01T06:41:32;25.73;;;12.00;;
39276;SDS011;63149;48.086;-1.606;2022-09-01T06:44:00;22.70;;;12.18;;
39276;SDS011;63149;48.086;-1.606;2022-09-01T06:46:28;20.25;;;11.95;;
39276;SDS011;63149;48.086;-1.606;2022-09-01T06:48:55;23.38;;;12.10;;
39276;SDS011;63149;48.086;-1.606;2022-09-01T06:51:23;28.92;;;12.13;;
39276;SDS011;63149;48.086;-1.606;2022-09-01T06:53:52;25.95;;;11.82;;
39276;SDS011;63149;48.086;-1.606;2022-09-01T06:56:23;20.00;;;11.77;;
39276;SDS011;63149;48.086;-1.606;2022-09-01T06:58:52;21.67;;;11.40;;
39276;SDS011;63149;48.086;-1.606;2022-09-01T07:01:20;22.58;;;11.98;;
39276;SDS011;63149;48.086;-1.606;2022-09-01T07:03:50;25.73;;;12.57;;
39276;SDS011;63149;48.086;-1.606;2022-09-01T07:06:18;16.83;;;11.55;;
39276;SDS011;63149;48.086;-1.606;2022-09-01T07:08:51;22.98;;;11.88;;
39276;SDS011;63149;48.086;-1.606;2022-09-01T07:11:20;19.77;;;11.70;;
39276;SDS011;63149;48.086;-1.606;2022-09-01T07:13:52;16.10;;;11.65;;
39276;SDS011;63149;48.086;-1.606;2022-09-01T07:16:21;20.02;;;12.18;;
39276;SDS011;63149;48.086;-1.606;2022-09-01T07:18:52;20.42;;;12.70;;
39276;SDS011;63149;48.086;-1.606;2022-09-01T07:21:21;17.95;;;11.13;;
39276;SDS011;63149;48.086;-1.606;2022-09-01T07:23:49;17.75;;;10.43;;
39276;SDS011;63149;48.086;-1.606;2022-09-01T07:26:16;18.08;;;11.43;;
39276;SDS011;63149;48.086;-1.606;2022-09-01T07:28:45;20.30;;;11.10;;
39276;SDS011;63149;48.086;-1.606;2022-09-01T07:31:17;22.02;;;11.23;;
39276;SDS011;63149;48.086;-1.606;2022-09-01T07:33:49;22.33;;;11.73;;
39276;SDS011;63149;48.086;-1.606;2022-09-01T07:36:20;22.08;;;10.57;;
39276;SDS011;63149;48.086;-1.606;2022-09-01T07:38:47;18.42;;;10.90;;
39276;SDS011;63149;48.086;-1.606;2022-09-01T07:41:17;21.50;;;11.07;;
39276;SDS011;63149;48.086;-1.606;2022-09-01T07:43:45;21.48;;;11.18;;
39276;SDS011;63149;48.086;-1.606;2022-09-01T07:48:43;20.40;;;11.45;;
39276;SDS011;63149;48.086;-1.606;2022-09-01T07:51:13;19.77;;;10.20;;
39276;SDS011;63149;48.086;-1.606;2022-09-01T07:53:45;19.65;;;11.82;;
39276;SDS011;63149;48.086;-1.606;2022-09-01T07:56:14;20.33;;;11.43;;
39276;SDS011;63149;48.086;-1.606;2022-09-01T07:58:43;26.17;;;12.38;;
39276;SDS011;63149;48.086;-1.606;2022-09-01T08:01:12;19.10;;;12.20;;
39276;SDS011;63149;48.086;-1.606;2022-09-01T08:03:42;21.50;;;12.77;;
39276;SDS011;63149;48.086;-1.606;2022-09-01T08:06:11;19.10;;;12.25;;
39276;SDS011;63149;48.086;-1.606;2022-09-01T08:08:40;18.60;;;11.13;;
39276;SDS011;63149;48.086;-1.606;2022-09-01T08:11:08;21.42;;;12.75;;
39276;SDS011;63149;48.086;-1.606;2022-09-01T08:13:40;33.53;;;13.13;;
39276;SDS011;63149;48.086;-1.606;2022-09-01T08:16:07;14.95;;;11.75;;
39276;SDS011;63149;48.086;-1.606;2022-09-01T08:18:35;20.75;;;12.20;;
39276;SDS011;63149;48.086;-1.606;2022-09-01T08:21:04;21.05;;;11.93;;
39276;SDS011;63149;48.086;-1.606;2022-09-01T08:23:32;19.20;;;13.77;;
39276;SDS011;63149;48.086;-1.606;2022-09-01T08:26:03;28.00;;;12.20;;
39276;SDS011;63149;48.086;-1.606;2022-09-01T08:28:32;25.77;;;12.75;;
39276;SDS011;63149;48.086;-1.606;2022-09-01T08:30:59;26.88;;;14.40;;
39276;SDS011;63149;48.086;-1.606;2022-09-01T08:33:31;25.15;;;12.00;;
39276;SDS011;63149;48.086;-1.606;2022-09-01T08:35:59;23.58;;;12.15;;
39276;SDS011;63149;48.086;-1.606;2022-09-01T08:38:26;25.38;;;12.48;;
39276;SDS011;63149;48.086;-1.606;2022-09-01T08:40:54;28.08;;;13.15;;
39276;SDS011;63149;48.086;-1.606;2022-09-01T08:43:25;20.42;;;12.50;;
39276;SDS011;63149;48.086;-1.606;2022-09-01T08:46:05;20.45;;;12.57;;
39276;SDS011;63149;48.086;-1.606;2022-09-01T08:48:38;21.20;;;12.23;;
39276;SDS011;63149;48.086;-1.606;2022-09-01T08:51:10;25.10;;;13.90;;
39276;SDS011;63149;48.086;-1.606;2022-09-01T08:53:44;22.77;;;13.00;;
39276;SDS011;63149;48.086;-1.606;2022-09-01T08:56:14;19.25;;;12.70;;
39276;SDS011;63149;48.086;-1.606;2022-09-01T08:58:43;22.77;;;13.73;;
39276;SDS011;63149;48.086;-1.606;2022-09-01T09:01:14;21.60;;;13.07;;
39276;SDS011;63149;48.086;-1.606;2022-09-01T09:03:56;19.15;;;11.85;;
39276;SDS011;63149;48.086;-1.606;2022-09-01T09:06:35;26.63;;;14.02;;
39276;SDS011;63149;48.086;-1.606;2022-09-01T09:09:08;25.98;;;13.20;;
39276;SDS011;63149;48.086;-1.606;2022-09-01T09:11:39;26.00;;;14.57;;
39276;SDS011;63149;48.086;-1.606;2022-09-01T09:17:15;24.13;;;13.40;;
39276;SDS011;63149;48.086;-1.606;2022-09-01T09:19:47;23.58;;;14.45;;
39276;SDS011;63149;48.086;-1.606;2022-09-01T09:22:15;24.52;;;14.18;;
39276;SDS011;63149;48.086;-1.606;2022-09-01T09:24:45;19.88;;;13.52;;
39276;SDS011;63149;48.086;-1.606;2022-09-01T09:27:16;20.65;;;14.15;;
39276;SDS011;63149;48.086;-1.606;2022-09-01T09:29:46;49.05;;;15.60;;
39276;SDS011;63149;48.086;-1.606;2022-09-01T09:32:17;31.87;;;14.37;;
39276;SDS011;63149;48.086;-1.606;2022-09-01T09:34:45;22.23;;;14.70;;
39276;SDS011;63149;48.086;-1.606;2022-09-01T09:37:16;20.60;;;13.80;;
39276;SDS011;63149;48.086;-1.606;2022-09-01T09:40:00;21.40;;;15.65;;
39276;SDS011;63149;48.086;-1.606;2022-09-01T09:42:30;20.73;;;14.57;;
39276;SDS011;63149;48.086;-1.606;2022-09-01T09:44:57;23.35;;;13.05;;
39276;SDS011;63149;48.086;-1.606;2022-09-01T09:50:22;22.40;;;14.00;;
39276;SDS011;63149;48.086;-1.606;2022-09-01T09:52:52;21.48;;;14.05;;
39276;SDS011;63149;48.086;-1.606;2022-09-01T09:55:35;22.42;;;13.98;;
39276;SDS011;63149;48.086;-1.606;2022-09-01T09:58:09;18.85;;;13.00;;
39276;SDS011;63149;48.086;-1.606;2022-09-01T10:00:37;25.90;;;13.23;;
39276;SDS011;63149;48.086;-1.606;2022-09-01T10:03:06;21.02;;;12.82;;
39276;SDS011;63149;48.086;-1.606;2022-09-01T10:05:38;23.27;;;12.60;;
39276;SDS011;63149;48.086;-1.606;2022-09-01T10:08:08;24.42;;;11.88;;
39276;SDS011;63149;48.086;-1.606;2022-09-01T10:10:38;24.13;;;12.82;;
39276;SDS011;63149;48.086;-1.606;2022-09-01T10:13:07;23.95;;;13.70;;
39276;SDS011;63149;48.086;-1.606;2022-09-01T10:15:37;24.42;;;12.43;;
39276;SDS011;63149;48.086;-1.606;2022-09-01T10:18:09;19.63;;;11.93;;
39276;SDS011;63149;48.086;-1.606;2022-09-01T10:20:40;27.65;;;11.98;;
39276;SDS011;63149;48.086;-1.606;2022-09-01T10:23:12;15.45;;;11.30;;
39276;SDS011;63149;48.086;-1.606;2022-09-01T10:25:40;15.48;;;10.35;;
39276;SDS011;63149;48.086;-1.606;2022-09-01T10:28:10;17.15;;;11.57;;
39276;SDS011;63149;48.086;-1.606;2022-09-01T10:30:40;20.15;;;11.55;;
39276;SDS011;63149;48.086;-1.606;2022-09-01T10:33:11;16.25;;;10.60;;
39276;SDS011;63149;48.086;-1.606;2022-09-01T10:35:41;16.30;;;9.83;;
39276;SDS011;63149;48.086;-1.606;2022-09-01T10:38:14;17.38;;;9.70;;
39276;SDS011;63149;48.086;-1.606;2022-09-01T10:43:22;12.85;;;8.77;;
39276;SDS011;63149;48.086;-1.606;2022-09-01T10:46:09;12.85;;;8.35;;
39276;SDS011;63149;48.086;-1.606;2022-09-01T10:55:16;10.77;;;7.20;;
39276;SDS011;63149;48.086;-1.606;2022-09-01T10:57:47;15.70;;;7.57;;
39276;SDS011;63149;48.086;-1.606;2022-09-01T11:00:42;13.57;;;7.15;;
39276;SDS011;63149;48.086;-1.606;2022-09-01T11:06:05;18.67;;;8.25;;
39276;SDS011;63149;48.086;-1.606;2022-09-01T11:08:40;12.93;;;7.70;;
39276;SDS011;63149;48.086;-1.606;2022-09-01T11:11:14;14.98;;;7.47;;
39276;SDS011;63149;48.086;-1.606;2022-09-01T11:13:52;14.88;;;7.55;;
39276;SDS011;63149;48.086;-1.606;2022-09-01T11:16:24;17.50;;;7.97;;
39276;SDS011;63149;48.086;-1.606;2022-09-01T11:18:53;13.75;;;8.02;;
39276;SDS011;63149;48.086;-1.606;2022-09-01T11:21:23;11.45;;;8.25;;
39276;SDS011;63149;48.086;-1.606;2022-09-01T11:26:54;13.90;;;8.48;;
39276;SDS011;63149;48.086;-1.606;2022-09-01T11:32:17;15.00;;;7.90;;
39276;SDS011;63149;48.086;-1.606;2022-09-01T11:34:47;10.57;;;7.63;;
39276;SDS011;63149;48.086;-1.606;2022-09-01T11:37:18;12.05;;;7.95;;
39276;SDS011;63149;48.086;-1.606;2022-09-01T11:39:47;15.30;;;8.88;;
39276;SDS011;63149;48.086;-1.606;2022-09-01T11:42:18;10.38;;;7.68;;
39276;SDS011;63149;48.086;-1.606;2022-09-01T11:44:51;10.70;;;7.57;;
39276;SDS011;63149;48.086;-1.606;2022-09-01T11:47:23;10.27;;;6.57;;
39276;SDS011;63149;48.086;-1.606;2022-09-01T11:49:53;10.00;;;6.40;;
39276;SDS011;63149;48.086;-1.606;2022-09-01T11:52:22;9.35;;;6.70;;
39276;SDS011;63149;48.086;-1.606;2022-09-01T11:54:51;14.88;;;7.70;;
39276;SDS011;63149;48.086;-1.606;2022-09-01T11:57:31;10.88;;;6.70;;
39276;SDS011;63149;48.086;-1.606;2022-09-01T11:59:59;9.98;;;7.05;;
39276;SDS011;63149;48.086;-1.606;2022-09-01T12:02:29;7.15;;;5.45;;
39276;SDS011;63149;48.086;-1.606;2022-09-01T12:04:58;8.52;;;4.82;;
39276;SDS011;63149;48.086;-1.606;2022-09-01T12:07:39;4.05;;;2.83;;
39276;SDS011;63149;48.086;-1.606;2022-09-01T12:10:13;4.82;;;2.60;;
39276;SDS011;63149;48.086;-1.606;2022-09-01T12:12:45;3.95;;;2.50;;
39276;SDS011;63149;48.086;-1.606;2022-09-01T12:15:17;4.82;;;2.83;;
39276;SDS011;63149;48.086;-1.606;2022-09-01T12:17:46;2.80;;;2.38;;
39276;SDS011;63149;48.086;-1.606;2022-09-01T12:20:20;3.03;;;2.70;;
39276;SDS011;63149;48.086;-1.606;2022-09-01T12:22:49;6.57;;;2.83;;
39276;SDS011;63149;48.086;-1.606;2022-09-01T12:25:18;3.10;;;2.42;;
39276;SDS011;63149;48.086;-1.606;2022-09-01T12:27:49;4.55;;;2.83;;
39276;SDS011;63149;48.086;-1.606;2022-09-01T12:30:17;2.72;;;2.53;;
39276;SDS011;63149;48.086;-1.606;2022-09-01T12:32:45;3.35;;;2.60;;
39276;SDS011;63149;48.086;-1.606;2022-09-01T12:35:14;5.32;;;2.22;;
39276;SDS011;63149;48.086;-1.606;2022-09-01T12:37:43;4.40;;;2.67;;
39276;SDS011;63149;48.086;-1.606;2022-09-01T12:40:21;6.45;;;3.03;;
39276;SDS011;63149;48.086;-1.606;2022-09-01T12:42:51;5.10;;;2.40;;
39276;SDS011;63149;48.086;-1.606;2022-09-01T12:48:04;6.10;;;2.60;;
39276;SDS011;63149;48.086;-1.606;2022-09-01T12:50:34;5.63;;;2.53;;
39276;SDS011;63149;48.086;-1.606;2022-09-01T12:53:12;3.28;;;2.65;;
39276;SDS011;63149;48.086;-1.606;2022-09-01T12:55:50;7.47;;;3.08;;
39276;SDS011;63149;48.086;-1.606;2022-09-01T12:58:29;5.65;;;2.90;;
39276;SDS011;63149;48.086;-1.606;2022-09-01T13:00:58;4.15;;;3.10;;
39276;SDS011;63149;48.086;-1.606;2022-09-01T13:03:28;5.25;;;3.15;;
39276;SDS011;63149;48.086;-1.606;2022-09-01T13:05:57;3.92;;;2.75;;
39276;SDS011;63149;48.086;-1.606;2022-09-01T13:08:25;6.85;;;3.58;;
39276;SDS011;63149;48.086;-1.606;2022-09-01T13:10:54;4.68;;;3.22;;
39276;SDS011;63149;48.086;-1.606;2022-09-01T13:13:23;7.55;;;3.88;;
39276;SDS011;63149;48.086;-1.606;2022-09-01T13:15:54;4.05;;;3.10;;
39276;SDS011;63149;48.086;-1.606;2022-09-01T13:18:24;5.40;;;3.40;;
39276;SDS011;63149;48.086;-1.606;2022-09-01T13:20:51;4.85;;;3.25;;
39276;SDS011;63149;48.086;-1.606;2022-09-01T13:23:20;5.68;;;3.00;;
39276;SDS011;63149;48.086;-1.606;2022-09-01T13:25:47;5.50;;;3.20;;
39276;SDS011;63149;48.086;-1.606;2022-09-01T13:28:15;7.50;;;4.20;;
39276;SDS011;63149;48.086;-1.606;2022-09-01T13:30:42;4.75;;;3.40;;
39276;SDS011;63149;48.086;-1.606;2022-09-01T13:33:14;7.10;;;4.13;;
39276;SDS011;63149;48.086;-1.606;2022-09-01T13:35:41;7.68;;;3.75;;
39276;SDS011;63149;48.086;-1.606;2022-09-01T13:38:08;7.25;;;3.70;;
39276;SDS011;63149;48.086;-1.606;2022-09-01T13:40:35;5.20;;;4.70;;
39276;SDS011;63149;48.086;-1.606;2022-09-01T13:43:02;8.75;;;4.20;;
39276;SDS011;63149;48.086;-1.606;2022-09-01T13:45:29;3.55;;;3.20;;
39276;SDS011;63149;48.086;-1.606;2022-09-01T13:47:56;5.35;;;4.00;;
39276;SDS011;63149;48.086;-1.606;2022-09-01T13:50:25;8.70;;;4.13;;
39276;SDS011;63149;48.086;-1.606;2022-09-01T13:52:53;7.63;;;4.03;;
39276;SDS011;63149;48.086;-1.606;2022-09-01T13:55:23;8.32;;;4.43;;
39276;SDS011;63149;48.086;-1.606;2022-09-01T13:57:51;8.30;;;4.18;;
39276;SDS011;63149;48.086;-1.606;2022-09-01T14:00:19;5.78;;;4.30;;
39276;SDS011;63149;48.086;-1.606;2022-09-01T14:02:50;6.47;;;3.67;;
39276;SDS011;63149;48.086;-1.606;2022-09-01T14:05:19;5.35;;;3.22;;
39276;SDS011;63149;48.086;-1.606;2022-09-01T14:07:49;10.20;;;3.72;;
39276;SDS011;63149;48.086;-1.606;2022-09-01T14:10:17;6.35;;;3.83;;
39276;SDS011;63149;48.086;-1.606;2022-09-01T14:12:44;4.97;;;4.10;;
39276;SDS011;63149;48.086;-1.606;2022-09-01T14:15:12;7.70;;;3.92;;
39276;SDS011;63149;48.086;-1.606;2022-09-01T14:17:40;6.68;;;3.85;;
39276;SDS011;63149;48.086;-1.606;2022-09-01T14:20:09;5.47;;;3.42;;
39276;SDS011;63149;48.086;-1.606;2022-09-01T14:22:38;9.33;;;4.20;;
39276;SDS011;63149;48.086;-1.606;2022-09-01T14:25:08;7.70;;;3.70;;
39276;SDS011;63149;48.086;-1.606;2022-09-01T14:27:36;5.68;;;3.65;;
39276;SDS011;63149;48.086;-1.606;2022-09-01T14:30:04;11.73;;;3.67;;
39276;SDS011;63149;48.086;-1.606;2022-09-01T14:32:33;4.28;;;3.72;;
39276;SDS011;63149;48.086;-1.606;2022-09-01T14:35:00;6.25;;;3.50;;
39276;SDS011;63149;48.086;-1.606;2022-09-01T14:37:28;7.50;;;3.42;;
39276;SDS011;63149;48.086;-1.606;2022-09-01T14:39:55;7.45;;;3.95;;
39276;SDS011;63149;48.086;-1.606;2022-09-01T14:42:24;6.47;;;4.40;;
39276;SDS011;63149;48.086;-1.606;2022-09-01T14:44:53;7.32;;;3.60;;
39276;SDS011;63149;48.086;-1.606;2022-09-01T14:47:20;6.53;;;3.47;;
39276;SDS011;63149;48.086;-1.606;2022-09-01T14:49:50;6.13;;;3.92;;
39276;SDS011;63149;48.086;-1.606;2022-09-01T14:52:17;6.68;;;4.07;;
39276;SDS011;63149;48.086;-1.606;2022-09-01T14:54:46;5.40;;;3.65;;
39276;SDS011;63149;48.086;-1.606;2022-09-01T14:57:13;6.28;;;4.22;;
39276;SDS011;63149;48.086;-1.606;2022-09-01T14:59:41;6.88;;;4.40;;
39276;SDS011;63149;48.086;-1.606;2022-09-01T15:02:08;7.13;;;4.25;;
39276;SDS011;63149;48.086;-1.606;2022-09-01T15:04:35;6.30;;;4.13;;
39276;SDS011;63149;48.086;-1.606;2022-09-01T15:07:03;7.47;;;3.88;;
39276;SDS011;63149;48.086;-1.606;2022-09-01T15:09:30;9.13;;;4.60;;
39276;SDS011;63149;48.086;-1.606;2022-09-01T15:11:58;4.20;;;3.80;;
39276;SDS011;63149;48.086;-1.606;2022-09-01T15:14:25;8.55;;;4.40;;
39276;SDS011;63149;48.086;-1.606;2022-09-01T15:16:53;7.25;;;4.13;;
39276;SDS011;63149;48.086;-1.606;2022-09-01T15:19:20;7.40;;;4.82;;
39276;SDS011;63149;48.086;-1.606;2022-09-01T15:21:47;11.25;;;4.55;;
39276;SDS011;63149;48.086;-1.606;2022-09-01T15:24:14;7.10;;;4.75;;
39276;SDS011;63149;48.086;-1.606;2022-09-01T15:26:42;6.78;;;4.80;;
39276;SDS011;63149;48.086;-1.606;2022-09-01T15:29:11;5.80;;;4.20;;
39276;SDS011;63149;48.086;-1.606;2022-09-01T15:31:40;7.03;;;4.55;;
39276;SDS011;63149;48.086;-1.606;2022-09-01T15:34:10;5.80;;;4.22;;
39276;SDS011;63149;48.086;-1.606;2022-09-01T15:36:38;5.88;;;4.50;;
39276;SDS011;63149;48.086;-1.606;2022-09-01T15:39:06;6.13;;;4.40;;
39276;SDS011;63149;48.086;-1.606;2022-09-01T15:41:34;6.80;;;4.30;;
39276;SDS011;63149;48.086;-1.606;2022-09-01T15:44:02;6.15;;;4.30;;
39276;SDS011;63149;48.086;-1.606;2022-09-01T15:46:31;6.25;;;4.15;;
39276;SDS011;63149;48.086;-1.606;2022-09-01T15:48:58;5.78;;;4.32;;
39276;SDS011;63149;48.086;-1.606;2022-09-01T15:51:29;6.82;;;4.38;;
39276;SDS011;63149;48.086;-1.606;2022-09-01T15:53:58;6.43;;;4.22;;
39276;SDS011;63149;48.086;-1.606;2022-09-01T15:56:28;6.68;;;4.63;;
39276;SDS011;63149;48.086;-1.606;2022-09-01T15:58:56;8.15;;;4.25;;
39276;SDS011;63149;48.086;-1.606;2022-09-01T16:01:25;5.93;;;4.32;;
39276;SDS011;63149;48.086;-1.606;2022-09-01T16:03:53;8.25;;;4.82;;
39276;SDS011;63149;48.086;-1.606;2022-09-01T16:06:20;6.50;;;4.30;;
39276;SDS011;63149;48.086;-1.606;2022-09-01T16:08:49;7.85;;;4.30;;
39276;SDS011;63149;48.086;-1.606;2022-09-01T16:11:18;6.77;;;4.20;;
39276;SDS011;63149;48.086;-1.606;2022-09-01T16:13:47;10.55;;;4.93;;
39276;SDS011;63149;48.086;-1.606;2022-09-01T16:16:21;7.63;;;4.68;;
39276;SDS011;63149;48.086;-1.606;2022-09-01T16:19:00;11.13;;;4.47;;
39276;SDS011;63149;48.086;-1.606;2022-09-01T16:21:32;7.28;;;4.53;;
39276;SDS011;63149;48.086;-1.606;2022-09-01T16:24:08;8.10;;;4.60;;
39276;SDS011;63149;48.086;-1.606;2022-09-01T16:26:37;6.40;;;4.72;;
39276;SDS011;63149;48.086;-1.606;2022-09-01T16:29:07;6.07;;;4.70;;
39276;SDS011;63149;48.086;-1.606;2022-09-01T16:31:36;6.32;;;4.60;;
39276;SDS011;63149;48.086;-1.606;2022-09-01T16:34:07;7.60;;;5.55;;
39276;SDS011;63149;48.086;-1.606;2022-09-01T16:36:44;8.82;;;5.60;;
39276;SDS011;63149;48.086;-1.606;2022-09-01T16:39:20;8.38;;;5.72;;
39276;SDS011;63149;48.086;-1.606;2022-09-01T16:41:55;7.97;;;5.15;;
39276;SDS011;63149;48.086;-1.606;2022-09-01T16:44:38;7.43;;;5.10;;
39276;SDS011;63149;48.086;-1.606;2022-09-01T16:47:20;7.10;;;5.30;;
39276;SDS011;63149;48.086;-1.606;2022-09-01T16:50:01;8.35;;;5.15;;
39276;SDS011;63149;48.086;-1.606;2022-09-01T16:52:36;6.20;;;4.70;;
39276;SDS011;63149;48.086;-1.606;2022-09-01T16:55:16;10.10;;;5.82;;
39276;SDS011;63149;48.086;-1.606;2022-09-01T16:57:52;9.95;;;5.25;;
39276;SDS011;63149;48.086;-1.606;2022-09-01T17:00:28;7.35;;;5.35;;
39276;SDS011;63149;48.086;-1.606;2022-09-01T17:03:05;7.38;;;5.10;;
39276;SDS011;63149;48.086;-1.606;2022-09-01T17:05:38;7.15;;;5.07;;
39276;SDS011;63149;48.086;-1.606;2022-09-01T17:08:11;8.80;;;5.32;;
39276;SDS011;63149;48.086;-1.606;2022-09-01T17:10:46;11.50;;;5.53;;
39276;SDS011;63149;48.086;-1.606;2022-09-01T17:13:20;9.50;;;6.38;;
39276;SDS011;63149;48.086;-1.606;2022-09-01T17:15:53;7.45;;;5.88;;
39276;SDS011;63149;48.086;-1.606;2022-09-01T17:18:33;8.40;;;5.70;;
39276;SDS011;63149;48.086;-1.606;2022-09-01T17:21:06;9.50;;;6.22;;
39276;SDS011;63149;48.086;-1.606;2022-09-01T17:23:38;10.77;;;6.20;;
39276;SDS011;63149;48.086;-1.606;2022-09-01T17:26:13;10.02;;;6.40;;
39276;SDS011;63149;48.086;-1.606;2022-09-01T17:28:46;12.93;;;6.70;;
39276;SDS011;63149;48.086;-1.606;2022-09-01T17:31:20;13.13;;;6.78;;
39276;SDS011;63149;48.086;-1.606;2022-09-01T17:33:59;11.52;;;8.45;;
39276;SDS011;63149;48.086;-1.606;2022-09-01T17:36:38;10.57;;;7.00;;
39276;SDS011;63149;48.086;-1.606;2022-09-01T17:39:15;10.35;;;7.05;;
39276;SDS011;63149;48.086;-1.606;2022-09-01T17:41:52;8.85;;;5.68;;
39276;SDS011;63149;48.086;-1.606;2022-09-01T17:44:25;13.93;;;6.82;;
39276;SDS011;63149;48.086;-1.606;2022-09-01T17:47:02;9.77;;;5.90;;
39276;SDS011;63149;48.086;-1.606;2022-09-01T17:49:37;9.25;;;5.45;;
39276;SDS011;63149;48.086;-1.606;2022-09-01T17:52:13;10.52;;;5.32;;
39276;SDS011;63149;48.086;-1.606;2022-09-01T17:54:49;11.65;;;4.65;;
39276;SDS011;63149;48.086;-1.606;2022-09-01T17:57:24;9.27;;;4.88;;
39276;SDS011;63149;48.086;-1.606;2022-09-01T17:59:57;7.60;;;4.47;;
39276;SDS011;63149;48.086;-1.606;2022-09-01T18:05:23;6.30;;;4.60;;
39276;SDS011;63149;48.086;-1.606;2022-09-01T18:07:53;7.40;;;4.70;;
39276;SDS011;63149;48.086;-1.606;2022-09-01T18:10:31;6.35;;;4.88;;
39276;SDS011;63149;48.086;-1.606;2022-09-01T18:13:06;7.28;;;4.93;;
39276;SDS011;63149;48.086;-1.606;2022-09-01T18:15:40;7.70;;;4.32;;
39276;SDS011;63149;48.086;-1.606;2022-09-01T18:18:16;8.02;;;5.05;;
39276;SDS011;63149;48.086;-1.606;2022-09-01T18:20:51;8.55;;;4.95;;
39276;SDS011;63149;48.086;-1.606;2022-09-01T18:23:24;6.43;;;4.60;;
39276;SDS011;63149;48.086;-1.606;2022-09-01T18:25:58;6.00;;;4.38;;
39276;SDS011;63149;48.086;-1.606;2022-09-01T18:28:34;5.95;;;4.40;;
39276;SDS011;63149;48.086;-1.606;2022-09-01T18:31:03;6.03;;;4.60;;
39276;SDS011;63149;48.086;-1.606;2022-09-01T18:33:36;7.97;;;4.40;;
39276;SDS011;63149;48.086;-1.606;2022-09-01T18:36:13;10.43;;;4.70;;
39276;SDS011;63149;48.086;-1.606;2022-09-01T18:38:51;10.05;;;4.65;;
39276;SDS011;63149;48.086;-1.606;2022-09-01T18:41:25;8.55;;;5.65;;
39276;SDS011;63149;48.086;-1.606;2022-09-01T18:44:02;10.70;;;5.03;;
39276;SDS011;63149;48.086;-1.606;2022-09-01T18:46:36;6.95;;;5.20;;
39276;SDS011;63149;48.086;-1.606;2022-09-01T18:49:13;10.10;;;5.78;;
39276;SDS011;63149;48.086;-1.606;2022-09-01T18:51:49;9.70;;;5.47;;
39276;SDS011;63149;48.086;-1.606;2022-09-01T18:54:26;9.85;;;5.43;;
39276;SDS011;63149;48.086;-1.606;2022-09-01T18:56:59;7.72;;;5.15;;
39276;SDS011;63149;48.086;-1.606;2022-09-01T18:59:33;9.20;;;5.88;;
39276;SDS011;63149;48.086;-1.606;2022-09-01T19:02:25;7.85;;;5.78;;
39276;SDS011;63149;48.086;-1.606;2022-09-01T19:05:04;9.48;;;5.97;;
39276;SDS011;63149;48.086;-1.606;2022-09-01T19:07:41;7.80;;;5.38;;
39276;SDS011;63149;48.086;-1.606;2022-09-01T19:10:18;10.45;;;5.00;;
39276;SDS011;63149;48.086;-1.606;2022-09-01T19:12:51;9.20;;;4.97;;
39276;SDS011;63149;48.086;-1.606;2022-09-01T19:15:25;9.13;;;5.53;;
39276;SDS011;63149;48.086;-1.606;2022-09-01T19:18:05;6.13;;;5.00;;
39276;SDS011;63149;48.086;-1.606;2022-09-01T19:20:39;7.68;;;5.28;;
39276;SDS011;63149;48.086;-1.606;2022-09-01T19:23:11;8.50;;;4.95;;
39276;SDS011;63149;48.086;-1.606;2022-09-01T19:25:44;9.25;;;4.65;;
39276;SDS011;63149;48.086;-1.606;2022-09-01T19:28:13;7.13;;;4.57;;
39276;SDS011;63149;48.086;-1.606;2022-09-01T19:30:46;6.68;;;4.65;;
39276;SDS011;63149;48.086;-1.606;2022-09-01T19:33:18;4.82;;;3.60;;
39276;SDS011;63149;48.086;-1.606;2022-09-01T19:35:50;7.63;;;4.07;;
39276;SDS011;63149;48.086;-1.606;2022-09-01T19:38:21;9.90;;;4.35;;
39276;SDS011;63149;48.086;-1.606;2022-09-01T19:40:52;9.73;;;4.00;;
39276;SDS011;63149;48.086;-1.606;2022-09-01T19:43:21;6.95;;;4.35;;
39276;SDS011;63149;48.086;-1.606;2022-09-01T19:45:52;8.75;;;4.93;;
39276;SDS011;63149;48.086;-1.606;2022-09-01T19:48:30;7.78;;;5.32;;
39276;SDS011;63149;48.086;-1.606;2022-09-01T19:51:02;7.63;;;5.15;;
39276;SDS011;63149;48.086;-1.606;2022-09-01T19:53:37;5.43;;;4.65;;
39276;SDS011;63149;48.086;-1.606;2022-09-01T19:56:11;6.40;;;5.10;;
39276;SDS011;63149;48.086;-1.606;2022-09-01T19:58:44;6.75;;;4.57;;
39276;SDS011;63149;48.086;-1.606;2022-09-01T20:01:22;6.20;;;4.43;;
39276;SDS011;63149;48.086;-1.606;2022-09-01T20:04:01;9.20;;;3.90;;
39276;SDS011;63149;48.086;-1.606;2022-09-01T20:06:36;6.57;;;4.38;;
39276;SDS011;63149;48.086;-1.606;2022-09-01T20:09:08;5.78;;;4.25;;
39276;SDS011;63149;48.086;-1.606;2022-09-01T20:11:42;7.55;;;4.75;;
39276;SDS011;63149;48.086;-1.606;2022-09-01T20:14:24;7.63;;;4.38;;
39276;SDS011;63149;48.086;-1.606;2022-09-01T20:17:05;6.07;;;4.93;;
39276;SDS011;63149;48.086;-1.606;2022-09-01T20:19:38;6.15;;;4.63;;